Time;durP1;ratioP1;P1;durP2;ratioP2;P2;SDS_P1;SDS_P2;PMS_P1;PMS_P2;Temp;Humidity;BMP_temperature;BMP_pressure;BME280_temperature;BME280_humidity;BME280_pressure;Samples;Min_cycle;Max_cycle;Signal;HPM_P1;HPM_P2
2024/03/24 00:01:50;;;;;;;10.20;4.57;;;;;;;;;;5039138;28;20258;-73
2024/03/24 00:04:15;;;;;;;10.47;5.27;;;;;;;;;;5053260;28;20225;-72
2024/03/24 00:06:41;;;;;;;11.87;4.73;;;;;;;;;;5056886;28;20233;-72
2024/03/24 00:09:08;;;;;;;12.30;5.40;;;;;;;;;;5055019;28;20181;-72
2024/03/24 00:11:33;;;;;;;12.70;5.20;;;;;;;;;;5058880;28;20219;-72
2024/03/24 00:13:58;;;;;;;11.77;5.47;;;;;;;;;;5053319;28;20562;-72
2024/03/24 00:16:25;;;;;;;8.70;5.00;;;;;;;;;;5055537;28;20215;-72
2024/03/24 00:18:50;;;;;;;10.17;5.23;;;;;;;;;;5054004;28;20205;-72
2024/03/24 00:21:16;;;;;;;13.33;5.47;;;;;;;;;;5055548;28;20385;-71
2024/03/24 00:23:41;;;;;;;8.87;5.47;;;;;;;;;;5057029;28;20271;-72
2024/03/24 00:26:06;;;;;;;10.53;5.30;;;;;;;;;;5050463;28;20207;-72
2024/03/24 00:28:32;;;;;;;11.63;5.87;;;;;;;;;;5058144;28;20656;-72
2024/03/24 00:30:57;;;;;;;9.57;5.47;;;;;;;;;;5054302;28;20181;-72
2024/03/24 00:33:23;;;;;;;11.00;5.47;;;;;;;;;;5053883;28;20693;-72
2024/03/24 00:35:48;;;;;;;11.10;5.73;;;;;;;;;;5056351;28;20930;-72
2024/03/24 00:38:14;;;;;;;12.80;5.20;;;;;;;;;;5053060;28;20189;-72
2024/03/24 00:40:39;;;;;;;12.00;5.03;;;;;;;;;;5055932;28;20259;-71
2024/03/24 00:43:04;;;;;;;10.07;4.63;;;;;;;;;;5051389;28;20212;-72
2024/03/24 00:45:30;;;;;;;12.63;5.70;;;;;;;;;;5053277;28;20250;-72
2024/03/24 00:47:56;;;;;;;11.83;4.97;;;;;;;;;;5057563;28;20617;-70
2024/03/24 00:50:21;;;;;;;10.90;5.13;;;;;;;;;;5054919;28;20204;-71
2024/03/24 00:52:47;;;;;;;11.43;4.90;;;;;;;;;;5048661;28;20189;-72
2024/03/24 00:55:12;;;;;;;11.87;4.93;;;;;;;;;;5054313;28;20199;-71
2024/03/24 00:57:37;;;;;;;8.80;4.63;;;;;;;;;;5050563;28;20594;-72
2024/03/24 01:00:03;;;;;;;12.40;4.93;;;;;;;;;;5052766;28;20223;-72
2024/03/24 01:02:29;;;;;;;8.57;4.13;;;;;;;;;;5051586;28;20639;-72
2024/03/24 01:04:55;;;;;;;11.93;4.20;;;;;;;;;;5049899;28;20623;-72
2024/03/24 01:07:21;;;;;;;8.77;4.57;;;;;;;;;;5053025;28;20235;-71
2024/03/24 01:09:51;;;;;;;9.93;4.90;;;;;;;;;;5051907;28;20208;-72
2024/03/24 01:12:16;;;;;;;11.73;4.70;;;;;;;;;;5052228;28;20567;-71
2024/03/24 01:14:42;;;;;;;11.73;4.43;;;;;;;;;;5051204;28;20197;-70
2024/03/24 01:17:07;;;;;;;9.43;4.57;;;;;;;;;;5058040;28;20208;-71
2024/03/24 01:19:32;;;;;;;9.97;5.00;;;;;;;;;;5054003;28;20664;-71
2024/03/24 01:21:58;;;;;;;9.93;4.37;;;;;;;;;;5056904;28;20362;-71
2024/03/24 01:24:23;;;;;;;9.03;4.37;;;;;;;;;;5056678;28;20200;-72
2024/03/24 01:26:49;;;;;;;10.30;4.47;;;;;;;;;;5053178;28;20196;-74
2024/03/24 01:29:14;;;;;;;7.50;4.80;;;;;;;;;;5055630;28;20688;-76
2024/03/24 01:31:39;;;;;;;13.77;4.97;;;;;;;;;;5049212;28;20215;-77
2024/03/24 01:34:05;;;;;;;11.53;4.73;;;;;;;;;;5057278;28;20363;-77
2024/03/24 01:36:30;;;;;;;9.67;5.43;;;;;;;;;;5073395;28;20239;-76
2024/03/24 01:38:57;;;;;;;11.23;5.33;;;;;;;;;;5060224;28;20630;-78
2024/03/24 01:41:22;;;;;;;8.70;5.17;;;;;;;;;;5056962;28;20220;-77
2024/03/24 01:43:48;;;;;;;8.80;5.37;;;;;;;;;;5038001;28;20276;-78
2024/03/24 01:46:14;;;;;;;12.33;6.03;;;;;;;;;;5060589;28;20184;-78
2024/03/24 01:48:39;;;;;;;11.43;6.20;;;;;;;;;;5060400;28;20189;-78
2024/03/24 01:51:09;;;;;;;7.93;6.10;;;;;;;;;;5059497;28;20577;-79
2024/03/24 01:53:36;;;;;;;10.83;6.43;;;;;;;;;;5065738;28;20221;-79
2024/03/24 01:56:02;;;;;;;11.37;6.10;;;;;;;;;;5040513;28;20186;-76
2024/03/24 01:58:33;;;;;;;10.27;6.90;;;;;;;;;;5058289;28;20188;-76
2024/03/24 02:00:58;;;;;;;10.37;7.07;;;;;;;;;;5053037;28;20194;-77
2024/03/24 02:03:23;;;;;;;10.73;7.77;;;;;;;;;;5057077;28;20197;-77
2024/03/24 02:05:49;;;;;;;14.17;7.43;;;;;;;;;;5036597;28;20193;-77
2024/03/24 02:08:15;;;;;;;13.50;7.73;;;;;;;;;;5055430;28;20193;-75
2024/03/24 02:10:41;;;;;;;10.97;7.93;;;;;;;;;;5055546;28;20201;-75
2024/03/24 02:13:08;;;;;;;13.50;8.37;;;;;;;;;;5055523;28;20560;-74
2024/03/24 02:15:33;;;;;;;14.83;8.47;;;;;;;;;;5057892;28;20193;-74
2024/03/24 02:17:59;;;;;;;18.20;8.93;;;;;;;;;;5064040;28;20195;-72
2024/03/24 02:20:24;;;;;;;14.80;8.93;;;;;;;;;;5058850;28;20575;-74
2024/03/24 02:22:50;;;;;;;15.17;9.50;;;;;;;;;;5055895;28;20204;-73
2024/03/24 02:25:15;;;;;;;15.07;8.33;;;;;;;;;;5055181;28;20559;-74
2024/03/24 02:27:40;;;;;;;12.43;8.43;;;;;;;;;;5056007;28;20196;-73
2024/03/24 02:30:10;;;;;;;15.53;8.37;;;;;;;;;;5056407;28;20239;-73
2024/03/24 02:32:45;;;;;;;15.27;8.47;;;;;;;;;;5054197;28;20221;-73
2024/03/24 02:35:12;;;;;;;12.73;9.00;;;;;;;;;;5055130;28;20613;-72
2024/03/24 02:37:37;;;;;;;13.82;8.38;;;;;;;;;;5056852;28;20228;-70
2024/03/24 02:40:05;;;;;;;13.60;9.40;;;;;;;;;;5054736;28;20216;-72
2024/03/24 02:42:31;;;;;;;16.80;8.90;;;;;;;;;;5059990;28;20216;-70
2024/03/24 02:44:56;;;;;;;13.70;9.53;;;;;;;;;;5054828;28;20181;-71
2024/03/24 02:47:22;;;;;;;15.80;9.70;;;;;;;;;;5049727;28;20208;-72
2024/03/24 02:49:47;;;;;;;15.97;10.23;;;;;;;;;;5060640;28;20527;-71
2024/03/24 02:52:13;;;;;;;17.97;10.37;;;;;;;;;;5050799;28;20233;-72
2024/03/24 02:54:38;;;;;;;13.25;9.70;;;;;;;;;;5048098;28;20319;-72
2024/03/24 02:57:04;;;;;;;15.20;10.18;;;;;;;;;;5057655;28;20732;-72
2024/03/24 02:59:29;;;;;;;15.43;10.40;;;;;;;;;;5061605;28;20182;-72
2024/03/24 03:01:56;;;;;;;18.83;10.00;;;;;;;;;;5055610;28;20201;-71
2024/03/24 03:04:21;;;;;;;14.33;9.77;;;;;;;;;;5054701;28;20308;-71
2024/03/24 03:06:47;;;;;;;20.83;11.27;;;;;;;;;;5054967;28;20213;-73
2024/03/24 03:09:16;;;;;;;15.13;10.70;;;;;;;;;;5054286;28;20189;-76
2024/03/24 03:11:42;;;;;;;17.53;10.70;;;;;;;;;;5055739;28;20209;-76
2024/03/24 03:14:07;;;;;;;18.17;11.50;;;;;;;;;;5057745;28;20601;-76
2024/03/24 03:16:33;;;;;;;16.00;10.83;;;;;;;;;;5057445;28;20228;-76
2024/03/24 03:18:58;;;;;;;17.27;11.33;;;;;;;;;;5049131;28;20283;-75
2024/03/24 03:21:25;;;;;;;22.60;12.43;;;;;;;;;;5056175;28;20267;-74
2024/03/24 03:23:52;;;;;;;15.50;11.53;;;;;;;;;;5056816;28;20227;-74
2024/03/24 03:26:17;;;;;;;20.83;12.23;;;;;;;;;;5054416;28;20220;-74
2024/03/24 03:28:43;;;;;;;21.53;12.03;;;;;;;;;;5058111;28;20676;-73
2024/03/24 03:31:08;;;;;;;23.50;12.40;;;;;;;;;;5056995;28;20302;-74
2024/03/24 03:33:33;;;;;;;19.53;12.50;;;;;;;;;;5078021;28;20587;-74
2024/03/24 03:35:59;;;;;;;19.83;12.00;;;;;;;;;;5053986;28;20218;-73
2024/03/24 03:38:24;;;;;;;21.43;12.47;;;;;;;;;;5054314;28;20193;-74
2024/03/24 03:40:49;;;;;;;20.30;13.30;;;;;;;;;;5049412;28;20265;-74
2024/03/24 03:43:16;;;;;;;20.20;12.50;;;;;;;;;;5056395;28;20201;-74
2024/03/24 03:45:43;;;;;;;20.70;12.50;;;;;;;;;;5051790;28;20185;-73
2024/03/24 03:48:08;;;;;;;20.27;13.07;;;;;;;;;;5074787;28;20177;-73
2024/03/24 03:50:37;;;;;;;20.07;13.77;;;;;;;;;;5053861;28;20189;-72
2024/03/24 03:53:04;;;;;;;21.73;13.23;;;;;;;;;;5054996;28;20203;-71
2024/03/24 03:55:30;;;;;;;20.00;11.90;;;;;;;;;;5054771;28;20245;-73
2024/03/24 03:57:55;;;;;;;18.03;10.67;;;;;;;;;;5054135;28;20253;-73
2024/03/24 04:00:21;;;;;;;20.83;11.27;;;;;;;;;;5053301;28;20303;-75
2024/03/24 04:02:49;;;;;;;10.90;7.27;;;;;;;;;;5053640;28;20286;-78
2024/03/24 04:05:15;;;;;;;14.20;6.37;;;;;;;;;;5055150;28;20605;-78
2024/03/24 04:07:41;;;;;;;8.77;6.10;;;;;;;;;;5054967;28;20196;-77
2024/03/24 04:10:07;;;;;;;10.17;5.33;;;;;;;;;;5044029;28;20655;-77
2024/03/24 04:12:33;;;;;;;11.83;4.43;;;;;;;;;;5057471;28;20199;-77
2024/03/24 04:14:59;;;;;;;5.70;2.80;;;;;;;;;;5061208;28;20637;-77
2024/03/24 04:17:26;;;;;;;3.17;1.23;;;;;;;;;;5039946;28;20189;-76
2024/03/24 04:19:52;;;;;;;2.70;1.30;;;;;;;;;;5053770;28;20319;-76
2024/03/24 04:22:17;;;;;;;2.97;1.37;;;;;;;;;;5053018;28;20661;-75
2024/03/24 04:24:43;;;;;;;2.37;1.70;;;;;;;;;;5054299;28;20189;-78
2024/03/24 04:27:09;;;;;;;2.50;1.70;;;;;;;;;;5045871;28;20632;-76
2024/03/24 04:29:34;;;;;;;6.10;1.60;;;;;;;;;;5051760;28;20192;-77
2024/03/24 04:31:59;;;;;;;4.87;1.47;;;;;;;;;;5033065;28;20193;-75
2024/03/24 04:34:25;;;;;;;1.97;1.27;;;;;;;;;;5052975;28;20185;-76
2024/03/24 04:36:50;;;;;;;3.00;1.40;;;;;;;;;;5054068;28;20249;-76
2024/03/24 04:39:18;;;;;;;3.53;1.30;;;;;;;;;;5060075;28;20545;-75
2024/03/24 04:41:46;;;;;;;2.17;1.47;;;;;;;;;;5051288;28;20536;-75
2024/03/24 04:44:13;;;;;;;3.83;1.80;;;;;;;;;;5056571;28;20301;-74
2024/03/24 04:46:38;;;;;;;2.33;1.60;;;;;;;;;;5048175;28;20546;-74
2024/03/24 04:49:07;;;;;;;4.87;1.70;;;;;;;;;;5057200;28;20285;-75
2024/03/24 04:51:32;;;;;;;4.97;2.27;;;;;;;;;;5057811;28;20196;-74
2024/03/24 04:53:58;;;;;;;4.10;2.30;;;;;;;;;;5058024;28;20184;-74
2024/03/24 04:56:23;;;;;;;3.67;2.20;;;;;;;;;;5055668;28;20189;-74
2024/03/24 04:58:50;;;;;;;4.93;1.97;;;;;;;;;;5054524;28;20201;-74
2024/03/24 05:01:15;;;;;;;4.97;1.60;;;;;;;;;;5047978;28;20225;-72
2024/03/24 05:03:41;;;;;;;5.10;1.73;;;;;;;;;;5054792;28;20192;-72
2024/03/24 05:06:06;;;;;;;6.70;1.60;;;;;;;;;;5057517;28;20188;-73
2024/03/24 05:08:37;;;;;;;2.10;1.60;;;;;;;;;;5045636;28;20513;-73
2024/03/24 05:11:06;;;;;;;2.20;1.40;;;;;;;;;;5055715;28;20216;-73
2024/03/24 05:13:32;;;;;;;6.77;1.87;;;;;;;;;;5052823;28;20189;-73
2024/03/24 05:15:58;;;;;;;8.20;1.63;;;;;;;;;;5054127;28;20189;-73
2024/03/24 05:18:24;;;;;;;2.53;1.30;;;;;;;;;;5050992;28;20209;-73
2024/03/24 05:20:50;;;;;;;5.60;1.57;;;;;;;;;;5054823;28;20532;-72
2024/03/24 05:23:18;;;;;;;3.83;1.67;;;;;;;;;;5060718;28;20205;-72
2024/03/24 05:25:52;;;;;;;5.83;1.20;;;;;;;;;;5053452;28;20525;-73
2024/03/24 05:28:18;;;;;;;6.57;1.57;;;;;;;;;;5058603;28;20684;-72
2024/03/24 05:30:43;;;;;;;6.20;1.70;;;;;;;;;;5055653;28;20190;-72
2024/03/24 05:33:09;;;;;;;3.87;1.40;;;;;;;;;;5056231;28;20180;-73
2024/03/24 05:35:34;;;;;;;5.30;1.50;;;;;;;;;;5051554;28;20180;-72
2024/03/24 05:38:00;;;;;;;4.83;1.33;;;;;;;;;;5049371;28;20330;-73
2024/03/24 05:40:25;;;;;;;5.87;1.87;;;;;;;;;;5055669;28;20314;-72
2024/03/24 05:42:51;;;;;;;4.90;1.60;;;;;;;;;;5054228;28;20205;-72
2024/03/24 05:45:16;;;;;;;4.07;1.40;;;;;;;;;;5055467;28;20200;-72
2024/03/24 05:47:43;;;;;;;3.33;1.13;;;;;;;;;;5049168;28;20260;-72
2024/03/24 05:50:08;;;;;;;4.00;1.60;;;;;;;;;;5054176;28;20219;-72
2024/03/24 05:52:36;;;;;;;3.93;1.60;;;;;;;;;;5052749;28;20235;-72
2024/03/24 05:55:04;;;;;;;4.03;1.40;;;;;;;;;;5052320;28;20247;-72
2024/03/24 05:57:30;;;;;;;4.33;1.53;;;;;;;;;;5056053;28;20208;-72
2024/03/24 05:59:56;;;;;;;6.50;1.70;;;;;;;;;;5054833;28;20646;-72
2024/03/24 06:02:21;;;;;;;2.77;1.40;;;;;;;;;;5056876;28;20211;-71
2024/03/24 06:04:47;;;;;;;5.00;1.33;;;;;;;;;;5050552;28;20186;-71
2024/03/24 06:07:12;;;;;;;6.57;1.50;;;;;;;;;;5051788;28;20226;-72
2024/03/24 06:09:38;;;;;;;5.40;1.77;;;;;;;;;;5053353;28;20667;-71
2024/03/24 06:12:04;;;;;;;6.27;1.83;;;;;;;;;;5056780;28;20303;-72
2024/03/24 06:14:30;;;;;;;5.07;1.80;;;;;;;;;;5050438;28;20219;-72
2024/03/24 06:16:56;;;;;;;4.07;1.87;;;;;;;;;;5059382;28;20195;-72
2024/03/24 06:19:21;;;;;;;6.07;2.10;;;;;;;;;;5058284;28;20217;-72
2024/03/24 06:21:49;;;;;;;6.03;2.20;;;;;;;;;;5060406;28;20687;-71
2024/03/24 06:24:15;;;;;;;7.77;2.27;;;;;;;;;;5057357;28;20653;-72
2024/03/24 06:26:40;;;;;;;5.60;2.40;;;;;;;;;;5055154;28;20723;-71
2024/03/24 06:29:06;;;;;;;7.90;2.73;;;;;;;;;;5060379;28;20193;-72
2024/03/24 06:31:31;;;;;;;7.37;2.00;;;;;;;;;;5054326;28;20185;-73
2024/03/24 06:33:59;;;;;;;6.97;2.37;;;;;;;;;;5057744;28;20205;-73
2024/03/24 06:36:24;;;;;;;6.80;2.37;;;;;;;;;;5059394;28;20311;-73
2024/03/24 06:38:50;;;;;;;8.93;2.63;;;;;;;;;;5056455;28;20371;-74
2024/03/24 06:41:16;;;;;;;8.43;2.73;;;;;;;;;;5057184;28;20213;-73
2024/03/24 06:43:42;;;;;;;10.73;2.70;;;;;;;;;;5056751;28;20570;-73
2024/03/24 06:46:09;;;;;;;7.03;2.43;;;;;;;;;;5059516;28;20201;-73
2024/03/24 06:48:34;;;;;;;6.07;2.70;;;;;;;;;;5054896;28;20233;-72
2024/03/24 06:51:00;;;;;;;6.50;2.60;;;;;;;;;;5059066;28;20213;-72
2024/03/24 06:53:26;;;;;;;8.30;2.53;;;;;;;;;;5059360;28;20644;-76
2024/03/24 06:55:51;;;;;;;3.67;1.97;;;;;;;;;;5059420;28;20212;-77
2024/03/24 06:58:17;;;;;;;8.77;2.60;;;;;;;;;;5057417;28;20200;-78
2024/03/24 07:00:44;;;;;;;10.00;2.80;;;;;;;;;;5053134;28;20296;-76
2024/03/24 07:03:09;;;;;;;7.17;2.20;;;;;;;;;;5051971;28;20182;-77
2024/03/24 07:05:35;;;;;;;6.13;2.00;;;;;;;;;;5058627;28;20195;-76
2024/03/24 07:08:01;;;;;;;6.27;2.50;;;;;;;;;;5050430;28;20267;-75
2024/03/24 07:10:26;;;;;;;4.83;2.50;;;;;;;;;;5056534;28;20211;-75
2024/03/24 07:12:51;;;;;;;7.93;2.73;;;;;;;;;;5079837;28;20673;-74
2024/03/24 07:15:17;;;;;;;8.30;2.13;;;;;;;;;;5054014;28;20698;-75
2024/03/24 07:17:43;;;;;;;5.47;2.20;;;;;;;;;;5056603;28;20204;-73
2024/03/24 07:20:09;;;;;;;6.90;2.30;;;;;;;;;;5054424;28;20204;-73
2024/03/24 07:22:34;;;;;;;6.63;2.37;;;;;;;;;;5054814;28;20186;-73
2024/03/24 07:25:00;;;;;;;7.23;2.17;;;;;;;;;;5054091;28;20185;-74
2024/03/24 07:27:25;;;;;;;6.40;2.50;;;;;;;;;;5055080;28;20605;-74
2024/03/24 07:29:51;;;;;;;7.37;2.53;;;;;;;;;;5056713;28;20185;-73
2024/03/24 07:32:16;;;;;;;8.47;3.77;;;;;;;;;;5050774;28;20185;-72
2024/03/24 07:34:42;;;;;;;7.50;2.37;;;;;;;;;;5057708;28;20285;-72
2024/03/24 07:37:08;;;;;;;8.67;2.43;;;;;;;;;;5055262;28;20298;-71
2024/03/24 07:39:34;;;;;;;8.77;3.00;;;;;;;;;;5055711;28;20220;-72
2024/03/24 07:41:59;;;;;;;6.53;2.53;;;;;;;;;;5055646;28;20213;-72
2024/03/24 07:44:25;;;;;;;11.53;2.70;;;;;;;;;;5055510;28;20212;-73
2024/03/24 07:46:50;;;;;;;9.80;2.53;;;;;;;;;;5057921;28;20201;-73
2024/03/24 07:49:16;;;;;;;12.17;3.23;;;;;;;;;;5060306;28;20192;-73
2024/03/24 07:51:41;;;;;;;6.03;2.60;;;;;;;;;;5057197;28;20334;-72
2024/03/24 07:54:07;;;;;;;9.25;3.22;;;;;;;;;;5047458;28;20200;-71
2024/03/24 07:56:34;;;;;;;11.70;3.28;;;;;;;;;;5075867;28;20185;-71
2024/03/24 07:59:00;;;;;;;10.27;2.67;;;;;;;;;;5055566;28;20180;-72
2024/03/24 08:01:25;;;;;;;12.05;2.78;;;;;;;;;;5060074;28;20219;-71
2024/03/24 08:03:51;;;;;;;7.15;2.53;;;;;;;;;;5058318;28;21207;-72
2024/03/24 08:06:17;;;;;;;10.82;2.50;;;;;;;;;;5058117;28;20655;-71
2024/03/24 08:08:42;;;;;;;9.85;2.67;;;;;;;;;;5052939;28;20231;-72
2024/03/24 08:11:08;;;;;;;14.10;2.95;;;;;;;;;;5053258;28;20211;-72
2024/03/24 08:13:34;;;;;;;11.68;3.60;;;;;;;;;;5050092;28;20201;-71
2024/03/24 08:16:00;;;;;;;10.10;3.05;;;;;;;;;;5056109;28;21338;-71
2024/03/24 08:18:25;;;;;;;15.77;3.60;;;;;;;;;;5060198;28;20238;-71
2024/03/24 08:20:51;;;;;;;10.32;2.78;;;;;;;;;;5055318;28;20209;-72
2024/03/24 08:23:17;;;;;;;12.05;2.67;;;;;;;;;;5048622;28;20567;-71
2024/03/24 08:25:43;;;;;;;14.00;2.70;;;;;;;;;;5053872;28;20195;-71
2024/03/24 08:28:09;;;;;;;14.15;2.75;;;;;;;;;;5054769;28;20668;-72
2024/03/24 08:30:35;;;;;;;8.05;2.70;;;;;;;;;;5060385;28;20275;-71
2024/03/24 08:33:00;;;;;;;18.02;3.55;;;;;;;;;;5053266;28;20181;-71
2024/03/24 08:35:26;;;;;;;9.30;3.03;;;;;;;;;;5055085;28;20253;-71
2024/03/24 08:37:52;;;;;;;12.75;2.95;;;;;;;;;;5056379;28;20278;-71
2024/03/24 08:40:18;;;;;;;12.77;2.95;;;;;;;;;;5054400;28;20215;-71
2024/03/24 08:42:44;;;;;;;15.05;3.05;;;;;;;;;;5052880;28;20196;-72
2024/03/24 08:45:09;;;;;;;11.00;3.50;;;;;;;;;;5052976;28;20214;-72
2024/03/24 08:47:35;;;;;;;19.02;3.40;;;;;;;;;;5052772;28;20217;-71
2024/03/24 08:50:02;;;;;;;15.43;3.53;;;;;;;;;;5058189;28;20587;-71
2024/03/24 08:52:28;;;;;;;17.08;3.35;;;;;;;;;;5049391;28;20617;-72
2024/03/24 08:54:53;;;;;;;18.00;4.20;;;;;;;;;;5056430;28;20251;-71
2024/03/24 08:57:18;;;;;;;13.00;2.83;;;;;;;;;;5053316;28;20193;-71
2024/03/24 08:59:44;;;;;;;14.45;3.53;;;;;;;;;;5049948;28;20204;-71
2024/03/24 09:02:09;;;;;;;12.48;3.92;;;;;;;;;;5052175;28;20210;-71
2024/03/24 09:04:35;;;;;;;11.45;3.30;;;;;;;;;;5048798;28;20203;-71
2024/03/24 09:07:00;;;;;;;12.57;3.47;;;;;;;;;;5036277;28;20204;-71
2024/03/24 09:09:25;;;;;;;15.43;3.45;;;;;;;;;;5058091;28;20505;-73
2024/03/24 09:11:51;;;;;;;15.23;3.53;;;;;;;;;;5056355;28;20195;-73
2024/03/24 09:14:16;;;;;;;15.60;3.83;;;;;;;;;;5053009;28;20267;-73
2024/03/24 09:16:42;;;;;;;15.43;3.65;;;;;;;;;;5055785;28;20614;-73
2024/03/24 09:19:07;;;;;;;17.15;3.97;;;;;;;;;;5053951;28;20222;-75
2024/03/24 09:21:32;;;;;;;11.68;3.65;;;;;;;;;;5054596;28;20219;-75
2024/03/24 09:23:58;;;;;;;14.10;3.58;;;;;;;;;;5046961;28;20335;-76
2024/03/24 09:26:24;;;;;;;11.07;3.00;;;;;;;;;;5038618;28;20187;-74
2024/03/24 09:28:50;;;;;;;9.13;2.40;;;;;;;;;;5051913;28;20189;-74
2024/03/24 09:31:16;;;;;;;8.85;2.08;;;;;;;;;;5051246;28;20288;-74
2024/03/24 09:33:41;;;;;;;11.00;2.30;;;;;;;;;;5052021;28;20664;-73
2024/03/24 09:36:07;;;;;;;9.48;2.63;;;;;;;;;;5053634;28;20711;-75
2024/03/24 09:38:32;;;;;;;9.98;2.22;;;;;;;;;;5053155;28;20193;-73
2024/03/24 09:40:57;;;;;;;9.48;2.30;;;;;;;;;;5053760;28;20632;-74
2024/03/24 09:43:23;;;;;;;7.80;2.08;;;;;;;;;;5053460;28;20204;-73
2024/03/24 09:45:49;;;;;;;6.85;1.50;;;;;;;;;;5051356;28;20227;-72
2024/03/24 09:48:16;;;;;;;10.13;1.70;;;;;;;;;;5052468;28;20196;-72
2024/03/24 09:50:42;;;;;;;8.25;1.77;;;;;;;;;;5053600;28;20652;-72
2024/03/24 09:53:09;;;;;;;7.70;2.00;;;;;;;;;;5054344;28;20193;-72
2024/03/24 09:55:35;;;;;;;10.50;1.90;;;;;;;;;;5054293;28;20233;-73
2024/03/24 09:58:01;;;;;;;8.13;1.57;;;;;;;;;;5052091;28;20253;-73
2024/03/24 10:00:28;;;;;;;9.20;1.43;;;;;;;;;;5054583;28;20217;-72
2024/03/24 10:02:54;;;;;;;10.43;1.80;;;;;;;;;;5057768;28;20180;-73
2024/03/24 10:05:20;;;;;;;11.75;2.30;;;;;;;;;;5055795;28;20344;-74
2024/03/24 10:07:47;;;;;;;8.50;1.55;;;;;;;;;;5051354;28;20178;-74
2024/03/24 10:10:14;;;;;;;6.67;1.50;;;;;;;;;;5055915;28;20269;-73
2024/03/24 10:12:51;;;;;;;5.85;1.65;;;;;;;;;;5058218;28;20258;-72
2024/03/24 10:15:18;;;;;;;9.40;1.50;;;;;;;;;;5053405;28;20884;-72
2024/03/24 10:17:44;;;;;;;7.80;1.30;;;;;;;;;;5057347;28;20244;-72
2024/03/24 10:20:13;;;;;;;5.13;0.93;;;;;;;;;;5054886;28;20580;-73
2024/03/24 10:22:39;;;;;;;5.07;0.90;;;;;;;;;;5055432;28;20189;-71
2024/03/24 10:25:11;;;;;;;3.38;0.90;;;;;;;;;;5054990;28;20407;-73
2024/03/24 10:27:38;;;;;;;3.58;0.57;;;;;;;;;;5041785;28;20437;-72
2024/03/24 10:30:04;;;;;;;5.60;0.90;;;;;;;;;;5060931;28;20192;-72
2024/03/24 10:32:31;;;;;;;5.60;1.10;;;;;;;;;;5058131;28;20632;-71
2024/03/24 10:35:00;;;;;;;9.75;1.02;;;;;;;;;;5059340;28;20188;-73
2024/03/24 10:37:26;;;;;;;5.85;1.17;;;;;;;;;;5059318;28;20651;-71
2024/03/24 10:39:52;;;;;;;6.28;1.08;;;;;;;;;;5058515;28;20185;-71
2024/03/24 10:42:19;;;;;;;6.93;0.95;;;;;;;;;;5060954;28;20216;-72
2024/03/24 10:44:45;;;;;;;3.53;0.95;;;;;;;;;;5057532;28;20746;-72
2024/03/24 10:47:11;;;;;;;6.07;1.30;;;;;;;;;;5059629;28;20263;-72
2024/03/24 10:49:40;;;;;;;4.53;1.20;;;;;;;;;;5054295;28;20239;-71
2024/03/24 10:52:07;;;;;;;6.13;1.45;;;;;;;;;;5056153;28;20184;-71
2024/03/24 10:54:34;;;;;;;3.90;1.02;;;;;;;;;;5058964;28;20197;-72
2024/03/24 10:57:01;;;;;;;7.25;1.15;;;;;;;;;;5059056;28;20189;-72
2024/03/24 10:59:29;;;;;;;5.95;1.30;;;;;;;;;;5057507;28;21355;-70
2024/03/24 11:01:55;;;;;;;6.83;2.07;;;;;;;;;;5060489;28;20208;-72
2024/03/24 11:04:20;;;;;;;8.90;1.90;;;;;;;;;;5061041;28;20195;-73
2024/03/24 11:06:46;;;;;;;6.65;1.75;;;;;;;;;;5058883;28;20288;-72
2024/03/24 11:09:12;;;;;;;7.50;1.50;;;;;;;;;;5057569;28;20211;-73
2024/03/24 11:11:39;;;;;;;8.75;1.58;;;;;;;;;;5057454;28;20618;-72
2024/03/24 11:14:06;;;;;;;10.18;1.80;;;;;;;;;;5055040;28;20657;-72
2024/03/24 11:16:31;;;;;;;7.95;1.23;;;;;;;;;;5031715;28;20200;-72
2024/03/24 11:19:10;;;;;;;6.03;1.60;;;;;;;;;;5051786;28;20217;-71
2024/03/24 11:21:39;;;;;;;2.50;1.45;;;;;;;;;;5055537;28;20592;-72
2024/03/24 11:24:28;;;;;;;2.97;0.90;;;;;;;;;;5059598;28;20213;-70
2024/03/24 11:26:54;;;;;;;4.70;0.75;;;;;;;;;;5055758;28;20595;-72
2024/03/24 11:29:48;;;;;;;3.67;0.40;;;;;;;;;;5055890;28;20189;-72
2024/03/24 11:32:17;;;;;;;0.93;0.40;;;;;;;;;;5053603;28;20615;-72
2024/03/24 11:34:53;;;;;;;6.33;1.43;;;;;;;;;;5055002;28;20197;-73
2024/03/24 11:37:20;;;;;;;1.13;0.47;;;;;;;;;;5056402;28;20243;-73
2024/03/24 11:39:47;;;;;;;1.30;0.40;;;;;;;;;;5051301;28;20617;-74
2024/03/24 11:42:13;;;;;;;1.67;0.40;;;;;;;;;;5059056;28;20224;-73
2024/03/24 11:44:38;;;;;;;2.63;0.50;;;;;;;;;;5054809;28;20193;-73
2024/03/24 11:47:04;;;;;;;2.83;0.60;;;;;;;;;;5054424;28;20197;-73
2024/03/24 11:49:36;;;;;;;2.80;0.60;;;;;;;;;;5050395;28;20192;-73
2024/03/24 11:52:02;;;;;;;2.77;0.80;;;;;;;;;;5056911;28;20221;-74
2024/03/24 11:54:29;;;;;;;2.47;1.15;;;;;;;;;;5056275;28;20219;-74
2024/03/24 11:56:56;;;;;;;5.40;1.10;;;;;;;;;;5053747;28;20188;-75
2024/03/24 11:59:22;;;;;;;6.20;0.87;;;;;;;;;;5059443;28;20734;-76
2024/03/24 12:01:49;;;;;;;6.85;1.30;;;;;;;;;;5050176;28;20205;-73
2024/03/24 12:04:15;;;;;;;7.87;2.13;;;;;;;;;;5057180;28;20207;-73
2024/03/24 12:06:40;;;;;;;7.63;1.93;;;;;;;;;;5054512;28;20447;-75
2024/03/24 12:09:09;;;;;;;8.43;1.80;;;;;;;;;;5054529;28;20186;-73
2024/03/24 12:11:34;;;;;;;6.43;1.90;;;;;;;;;;5053300;28;20271;-73
2024/03/24 12:14:00;;;;;;;13.20;1.70;;;;;;;;;;5052746;28;20631;-73
2024/03/24 12:16:25;;;;;;;10.52;2.42;;;;;;;;;;5053924;28;20196;-74
2024/03/24 12:18:51;;;;;;;14.02;1.95;;;;;;;;;;5034385;28;20217;-76
2024/03/24 12:21:16;;;;;;;11.93;1.80;;;;;;;;;;5059786;28;20217;-76
2024/03/24 12:23:42;;;;;;;10.02;1.38;;;;;;;;;;5055642;28;20195;-76
2024/03/24 12:26:07;;;;;;;7.03;1.80;;;;;;;;;;5051025;28;20186;-75
2024/03/24 12:28:34;;;;;;;8.30;1.30;;;;;;;;;;5050968;28;20257;-75
2024/03/24 12:31:00;;;;;;;8.60;1.35;;;;;;;;;;5049829;28;20201;-75
2024/03/24 12:33:27;;;;;;;5.68;1.23;;;;;;;;;;5051262;28;20211;-74
2024/03/24 12:35:57;;;;;;;9.05;1.30;;;;;;;;;;5050376;28;20196;-74
2024/03/24 12:38:23;;;;;;;8.75;1.77;;;;;;;;;;5050389;28;20619;-74
2024/03/24 12:40:58;;;;;;;5.55;1.13;;;;;;;;;;5050996;28;20259;-73
2024/03/24 12:43:27;;;;;;;3.78;1.02;;;;;;;;;;5050258;28;20189;-71
2024/03/24 12:45:58;;;;;;;7.22;1.60;;;;;;;;;;5055629;28;20185;-72
2024/03/24 12:48:25;;;;;;;8.50;1.55;;;;;;;;;;5049518;28;20565;-71
2024/03/24 12:50:51;;;;;;;10.43;1.50;;;;;;;;;;5053407;28;20260;-71
2024/03/24 12:53:44;;;;;;;7.32;1.77;;;;;;;;;;5054223;28;20279;-72
2024/03/24 12:56:12;;;;;;;13.43;2.10;;;;;;;;;;5046949;28;20623;-72
2024/03/24 12:58:39;;;;;;;11.93;2.50;;;;;;;;;;5049380;28;20660;-72
2024/03/24 13:01:07;;;;;;;10.85;2.40;;;;;;;;;;5051712;28;20224;-72
2024/03/24 13:03:34;;;;;;;7.65;1.42;;;;;;;;;;5050525;28;20200;-72
2024/03/24 13:06:03;;;;;;;19.17;2.75;;;;;;;;;;5048919;28;20646;-72
2024/03/24 13:08:31;;;;;;;14.68;3.03;;;;;;;;;;5053144;28;20189;-72
2024/03/24 13:10:57;;;;;;;9.10;1.38;;;;;;;;;;5051250;28;20265;-72
2024/03/24 13:13:22;;;;;;;12.05;1.80;;;;;;;;;;5051237;28;20196;-72
2024/03/24 13:15:48;;;;;;;10.90;2.17;;;;;;;;;;5050776;28;20189;-71
2024/03/24 13:18:32;;;;;;;10.23;1.67;;;;;;;;;;5051321;28;20189;-71
2024/03/24 13:20:59;;;;;;;17.63;2.45;;;;;;;;;;5050365;28;20556;-71
2024/03/24 13:23:24;;;;;;;12.43;1.95;;;;;;;;;;5073605;28;20533;-72
2024/03/24 13:25:55;;;;;;;11.50;2.13;;;;;;;;;;5056008;28;20200;-70
2024/03/24 13:28:21;;;;;;;16.73;2.92;;;;;;;;;;5054479;28;20252;-72
2024/03/24 13:30:47;;;;;;;11.68;2.10;;;;;;;;;;5050184;28;20751;-72
2024/03/24 13:33:15;;;;;;;14.45;2.08;;;;;;;;;;5055135;28;20478;-71
2024/03/24 13:35:40;;;;;;;9.73;1.75;;;;;;;;;;5060311;28;20287;-72
2024/03/24 13:38:22;;;;;;;12.43;2.20;;;;;;;;;;5054819;28;20239;-70
2024/03/24 13:41:10;;;;;;;10.20;1.95;;;;;;;;;;5048596;28;20220;-72
2024/03/24 13:44:06;;;;;;;9.65;2.10;;;;;;;;;;5056297;28;20280;-71
2024/03/24 13:46:33;;;;;;;12.32;2.03;;;;;;;;;;5056871;28;20235;-71
2024/03/24 13:49:00;;;;;;;10.02;1.92;;;;;;;;;;5056148;28;21494;-71
2024/03/24 13:51:33;;;;;;;18.63;2.33;;;;;;;;;;5053635;28;20221;-71
2024/03/24 13:53:59;;;;;;;11.88;2.33;;;;;;;;;;5054889;28;20196;-73
2024/03/24 13:56:25;;;;;;;16.95;2.60;;;;;;;;;;5053464;28;20189;-74
2024/03/24 13:58:50;;;;;;;16.48;2.33;;;;;;;;;;5038896;28;20220;-75
2024/03/24 14:01:17;;;;;;;13.07;2.45;;;;;;;;;;5051230;28;20579;-74
2024/03/24 14:03:49;;;;;;;17.05;2.10;;;;;;;;;;5063084;28;20216;-73
2024/03/24 14:06:18;;;;;;;13.27;2.22;;;;;;;;;;5054552;28;20288;-75
2024/03/24 14:08:43;;;;;;;12.57;3.03;;;;;;;;;;5055789;28;20212;-76
2024/03/24 14:11:09;;;;;;;12.85;2.40;;;;;;;;;;5041853;28;20590;-76
2024/03/24 14:13:38;;;;;;;14.23;2.50;;;;;;;;;;4352869;28;10021613;-75
2024/03/24 14:16:29;;;;;;;14.05;2.33;;;;;;;;;;5052547;28;20897;-75
2024/03/24 14:19:04;;;;;;;9.15;2.00;;;;;;;;;;5040841;28;20328;-74
2024/03/24 14:22:00;;;;;;;8.68;1.98;;;;;;;;;;5051828;28;20232;-73
2024/03/24 14:25:05;;;;;;;9.70;2.15;;;;;;;;;;5051448;28;20523;-74
2024/03/24 14:27:31;;;;;;;9.40;2.42;;;;;;;;;;5043556;28;20640;-72
2024/03/24 14:29:56;;;;;;;18.17;3.35;;;;;;;;;;5033969;28;20284;-73
2024/03/24 14:32:21;;;;;;;10.80;2.50;;;;;;;;;;5053423;28;20650;-72
2024/03/24 14:34:47;;;;;;;10.40;2.28;;;;;;;;;;5048941;28;20196;-73